createdAt,value
2022-11-17T00:00:24.030Z,6.53
2022-11-17T00:02:52.113Z,6.60
2022-11-17T00:05:20.411Z,6.43
2022-11-17T00:07:50.038Z,6.68
2022-11-17T00:10:18.798Z,6.28
2022-11-17T00:13:04.260Z,5.70
2022-11-17T00:15:32.392Z,6.73
2022-11-17T00:18:14.293Z,7.17
2022-11-17T00:21:00.133Z,7.40
2022-11-17T00:23:46.912Z,7.00
2022-11-17T00:26:17.284Z,6.40
2022-11-17T00:28:45.446Z,6.23
2022-11-17T00:31:32.008Z,6.90
2022-11-17T00:34:06.117Z,6.20
2022-11-17T00:36:36.712Z,5.60
2022-11-17T00:39:07.065Z,6.07
2022-11-17T00:41:35.021Z,6.67
2022-11-17T00:44:03.281Z,6.97
2022-11-17T00:46:31.659Z,6.17
2022-11-17T00:48:59.971Z,5.90
2022-11-17T00:51:28.078Z,7.27
2022-11-17T00:53:56.053Z,6.60
2022-11-17T00:56:26.548Z,6.80
2022-11-17T00:58:54.638Z,7.40
2022-11-17T01:01:22.822Z,6.73
2022-11-17T01:03:51.318Z,6.60
2022-11-17T01:06:21.053Z,7.30
2022-11-17T01:08:49.274Z,7.57
2022-11-17T01:11:19.119Z,6.50
2022-11-17T01:13:49.254Z,6.60
2022-11-17T01:16:19.678Z,5.82
2022-11-17T01:18:49.482Z,6.77
2022-11-17T01:21:19.785Z,7.07
2022-11-17T01:23:48.777Z,6.20
2022-11-17T01:26:20.090Z,6.63
2022-11-17T01:28:49.909Z,5.73
2022-11-17T01:31:19.646Z,6.10
2022-11-17T01:33:48.038Z,6.53
2022-11-17T01:36:17.686Z,5.60
2022-11-17T01:38:46.188Z,6.70
2022-11-17T01:41:18.106Z,5.78
2022-11-17T01:43:47.464Z,6.80
2022-11-17T01:46:26.458Z,6.87
2022-11-17T01:48:59.836Z,5.87
2022-11-17T01:51:30.369Z,6.37
2022-11-17T01:53:59.212Z,6.53
2022-11-17T01:56:32.496Z,6.60
2022-11-17T01:59:07.601Z,6.67
2022-11-17T02:01:55.616Z,5.80
2022-11-17T02:04:26.997Z,5.37
2022-11-17T02:07:00.828Z,5.67
2022-11-17T02:09:29.088Z,6.57
2022-11-17T02:11:58.153Z,5.90
2022-11-17T02:14:26.208Z,5.87
2022-11-17T02:16:55.552Z,5.70
2022-11-17T02:19:26.210Z,6.50
2022-11-17T02:22:16.355Z,5.70
2022-11-17T02:25:00.650Z,6.37
2022-11-17T02:28:03.920Z,6.17
2022-11-17T02:30:39.036Z,6.37
2022-11-17T02:33:14.378Z,6.17
2022-11-17T02:35:51.029Z,5.87
2022-11-17T02:38:28.197Z,6.03
2022-11-17T02:41:01.862Z,5.85
2022-11-17T02:43:54.855Z,6.00
2022-11-17T02:46:24.505Z,5.50
2022-11-17T02:48:56.920Z,6.07
2022-11-17T02:51:25.724Z,6.03
2022-11-17T02:53:55.758Z,5.93
2022-11-17T02:56:23.909Z,6.50
2022-11-17T02:58:57.925Z,5.50
2022-11-17T03:01:43.225Z,5.50
2022-11-17T03:04:27.211Z,5.00
2022-11-17T03:07:01.590Z,3.93
2022-11-17T03:09:42.967Z,3.30
2022-11-17T03:12:17.253Z,4.00
2022-11-17T03:14:58.755Z,3.47
2022-11-17T03:17:31.518Z,3.40
2022-11-17T03:20:06.786Z,3.13
2022-11-17T03:22:43.451Z,3.37
2022-11-17T03:25:15.400Z,3.47
2022-11-17T03:27:48.393Z,3.40
2022-11-17T03:30:19.332Z,4.00
2022-11-17T03:32:52.054Z,3.30
2022-11-17T03:35:24.446Z,3.57
2022-11-17T03:37:56.995Z,2.80
2022-11-17T03:40:28.889Z,3.17
2022-11-17T03:42:59.983Z,2.90
2022-11-17T03:45:31.505Z,3.87
2022-11-17T03:48:04.500Z,3.73
2022-11-17T03:50:37.077Z,3.87
2022-11-17T03:53:07.071Z,3.37
2022-11-17T03:55:42.625Z,3.60
2022-11-17T03:58:16.400Z,3.50
2022-11-17T04:00:46.856Z,3.07
2022-11-17T04:03:16.561Z,3.30
2022-11-17T04:05:44.761Z,3.43
2022-11-17T04:08:12.786Z,3.40
2022-11-17T04:10:54.655Z,4.20
2022-11-17T04:13:40.119Z,2.93
2022-11-17T04:16:10.007Z,3.73
2022-11-17T04:18:38.034Z,3.70
2022-11-17T04:21:06.490Z,4.00
2022-11-17T04:23:34.699Z,3.67
2022-11-17T04:26:20.073Z,3.47
2022-11-17T04:28:50.644Z,3.80
2022-11-17T04:31:22.668Z,3.57
2022-11-17T04:33:52.742Z,3.90
2022-11-17T04:36:22.102Z,4.27
2022-11-17T04:38:52.514Z,2.80
2022-11-17T04:41:39.037Z,3.57
2022-11-17T04:44:08.939Z,3.67
2022-11-17T04:46:39.773Z,3.27
2022-11-17T04:49:09.143Z,2.87
2022-11-17T04:51:37.937Z,3.70
2022-11-17T04:54:08.327Z,2.60
2022-11-17T04:56:37.288Z,3.30
2022-11-17T04:59:06.104Z,3.53
2022-11-17T05:01:34.825Z,3.30
2022-11-17T05:04:05.609Z,2.60
2022-11-17T05:06:35.205Z,3.20
2022-11-17T05:09:05.736Z,2.83
2022-11-17T05:11:51.253Z,3.27
2022-11-17T05:14:20.549Z,3.90
2022-11-17T05:17:10.405Z,3.80
2022-11-17T05:19:42.161Z,4.03
2022-11-17T05:22:24.949Z,4.10
2022-11-17T05:24:54.197Z,4.80
2022-11-17T05:27:23.848Z,4.53
2022-11-17T05:29:52.041Z,3.90
2022-11-17T05:32:20.691Z,4.70
2022-11-17T05:34:50.012Z,9.67
2022-11-17T05:37:18.111Z,12.87
2022-11-17T05:39:46.152Z,24.23
2022-11-17T05:42:14.234Z,7.27
2022-11-17T05:44:42.202Z,8.60
2022-11-17T05:47:10.227Z,4.53
2022-11-17T05:49:38.245Z,6.33
2022-11-17T05:52:07.681Z,6.30
2022-11-17T05:54:35.640Z,5.00
2022-11-17T05:57:41.191Z,4.50
2022-11-17T06:00:31.811Z,4.70
2022-11-17T06:03:05.581Z,5.10
2022-11-17T06:05:41.137Z,4.40
2022-11-17T06:08:15.363Z,5.00
2022-11-17T06:10:49.666Z,4.93
2022-11-17T06:13:26.644Z,4.40
2022-11-17T06:15:55.828Z,5.43
2022-11-17T06:18:27.419Z,4.30
2022-11-17T06:20:55.768Z,4.10
2022-11-17T06:23:29.505Z,4.63
2022-11-17T06:25:59.721Z,3.70
2022-11-17T06:28:29.780Z,4.20
2022-11-17T06:30:58.627Z,3.83
2022-11-17T06:33:29.116Z,4.17
2022-11-17T06:36:01.713Z,4.00
2022-11-17T06:38:35.649Z,4.00
2022-11-17T06:41:08.963Z,3.67
2022-11-17T06:43:39.776Z,3.90
2022-11-17T06:46:07.710Z,3.53
2022-11-17T06:48:36.678Z,3.63
2022-11-17T06:51:05.766Z,4.13
2022-11-17T06:53:36.292Z,4.10
2022-11-17T06:56:08.806Z,4.00
2022-11-17T06:58:38.870Z,4.00
2022-11-17T07:01:09.108Z,3.03
2022-11-17T07:03:38.914Z,2.93
2022-11-17T07:06:09.549Z,2.47
2022-11-17T07:08:39.306Z,3.87
2022-11-17T07:11:08.961Z,3.10
2022-11-17T07:13:37.607Z,3.60
2022-11-17T07:16:07.837Z,2.80
2022-11-17T07:18:36.578Z,3.27
2022-11-17T07:21:06.291Z,3.20
2022-11-17T07:23:35.982Z,3.37
2022-11-17T07:26:05.870Z,2.90
2022-11-17T07:28:36.511Z,2.63
2022-11-17T07:31:06.366Z,3.27
2022-11-17T07:33:34.761Z,2.80
2022-11-17T07:36:06.894Z,3.23
2022-11-17T07:38:35.971Z,2.23
2022-11-17T07:41:06.798Z,2.60
2022-11-17T07:43:35.604Z,2.60
2022-11-17T07:46:05.170Z,2.20
2022-11-17T07:48:33.636Z,3.13
2022-11-17T07:51:03.135Z,2.33
2022-11-17T07:53:32.465Z,2.60
2022-11-17T07:56:05.941Z,2.43
2022-11-17T07:58:34.327Z,2.33
2022-11-17T08:01:06.190Z,2.20
2022-11-17T08:03:34.273Z,2.37
2022-11-17T08:06:02.930Z,1.60
2022-11-17T08:08:30.924Z,2.23
2022-11-17T08:11:03.564Z,1.77
2022-11-17T08:13:33.087Z,1.47
2022-11-17T08:16:01.264Z,0.90
2022-11-17T08:18:30.335Z,0.93
2022-11-17T08:21:03.825Z,1.00
2022-11-17T08:23:32.102Z,0.57
2022-11-17T08:26:00.235Z,0.73
2022-11-17T08:28:28.270Z,0.77
2022-11-17T08:30:57.707Z,0.70
2022-11-17T08:33:25.661Z,0.80
2022-11-17T08:35:53.892Z,0.83
2022-11-17T08:38:22.376Z,0.80
2022-11-17T08:40:50.313Z,0.80
2022-11-17T08:43:18.309Z,0.70
2022-11-17T08:45:46.270Z,0.80
2022-11-17T08:48:15.622Z,0.70
2022-11-17T08:50:43.695Z,0.70
2022-11-17T08:53:15.089Z,0.70
2022-11-17T08:55:43.631Z,0.80
2022-11-17T08:58:12.792Z,1.13
2022-11-17T09:00:41.209Z,0.97
2022-11-17T09:03:10.744Z,0.90
2022-11-17T09:05:41.339Z,1.00
2022-11-17T09:08:43.176Z,1.57
2022-11-17T09:10:58.825Z,0.63
2022-11-17T09:13:26.809Z,1.17
2022-11-17T09:15:54.812Z,1.13
2022-11-17T09:18:22.854Z,1.00
2022-11-17T09:20:52.137Z,0.90
2022-11-17T09:23:20.178Z,1.00
2022-11-17T09:25:48.171Z,1.00
2022-11-17T09:28:16.117Z,1.17
2022-11-17T09:30:44.074Z,1.27
2022-11-17T09:33:12.111Z,0.93
2022-11-17T09:35:40.100Z,0.90
2022-11-17T09:38:09.494Z,0.80
2022-11-17T09:40:39.776Z,1.53
2022-11-17T09:43:19.669Z,0.97
2022-11-17T09:45:48.811Z,1.20
2022-11-17T09:51:15.808Z,1.30
2022-11-17T09:53:51.884Z,1.50
2022-11-17T09:56:20.140Z,1.33
2022-11-17T09:58:51.987Z,1.60
2022-11-17T10:01:21.841Z,1.80
2022-11-17T10:03:51.420Z,1.00
2022-11-17T10:06:21.603Z,0.90
2022-11-17T10:09:00.371Z,0.90
2022-11-17T10:11:34.072Z,1.60
2022-11-17T10:14:13.375Z,1.10
2022-11-17T10:16:43.525Z,1.00
2022-11-17T10:19:19.452Z,0.80
2022-11-17T10:21:50.039Z,1.30
2022-11-17T10:24:38.217Z,0.70
2022-11-17T10:27:16.279Z,1.10
2022-11-17T10:29:57.943Z,1.10
2022-11-17T10:32:26.546Z,0.90
2022-11-17T10:34:55.197Z,1.00
2022-11-17T10:37:27.638Z,1.20
2022-11-17T10:40:20.585Z,0.87
2022-11-17T10:43:06.369Z,1.77
2022-11-17T10:45:35.028Z,1.30
2022-11-17T10:48:24.100Z,1.10
2022-11-17T10:50:54.227Z,1.00
2022-11-17T10:53:31.422Z,1.00
2022-11-17T10:56:04.846Z,1.93
2022-11-17T10:58:34.551Z,1.30
2022-11-17T11:01:06.321Z,1.30
2022-11-17T11:03:36.151Z,1.43
2022-11-17T11:06:07.030Z,1.10
2022-11-17T11:08:42.301Z,1.47
2022-11-17T11:11:22.484Z,1.37
2022-11-17T11:13:58.237Z,1.13
2022-11-17T11:16:30.472Z,1.23
2022-11-17T11:19:00.190Z,0.83
2022-11-17T11:21:52.127Z,1.10
2022-11-17T11:24:25.733Z,0.80
2022-11-17T11:27:05.810Z,1.20
2022-11-17T11:29:50.908Z,1.37
2022-11-17T11:32:30.424Z,0.97
2022-11-17T11:35:22.931Z,1.00
2022-11-17T11:38:02.480Z,1.10
2022-11-17T11:40:36.883Z,0.90
2022-11-17T11:43:15.214Z,0.70
2022-11-17T11:45:49.557Z,0.97
2022-11-17T11:48:20.002Z,0.70
2022-11-17T11:50:57.679Z,0.97
2022-11-17T11:53:42.709Z,1.00
2022-11-17T11:56:16.626Z,1.00
2022-11-17T11:58:52.186Z,1.00
2022-11-17T12:01:22.751Z,1.00
2022-11-17T12:03:59.215Z,0.87
2022-11-17T12:06:43.356Z,0.80
2022-11-17T12:09:34.809Z,1.00
2022-11-17T12:12:09.143Z,0.97
2022-11-17T12:14:41.247Z,0.70
2022-11-17T12:17:23.197Z,1.20
2022-11-17T12:19:57.257Z,1.13
2022-11-17T12:22:53.609Z,1.37
2022-11-17T12:25:28.811Z,1.20
2022-11-17T12:27:57.193Z,1.50
2022-11-17T12:30:55.869Z,1.60
2022-11-17T12:33:24.513Z,1.27
2022-11-17T12:36:30.597Z,1.30
2022-11-17T12:39:01.014Z,1.60
2022-11-17T12:42:08.816Z,1.60
2022-11-17T12:44:57.355Z,1.40
2022-11-17T12:47:31.286Z,0.80
2022-11-17T12:50:49.730Z,1.40
2022-11-17T12:53:35.654Z,1.50
2022-11-17T12:56:38.667Z,0.97
2022-11-17T12:59:37.111Z,1.33
2022-11-17T13:02:18.039Z,1.37
2022-11-17T13:04:50.587Z,1.33
2022-11-17T13:07:21.437Z,1.30
2022-11-17T13:09:52.696Z,2.07
2022-11-17T13:12:24.946Z,1.50
2022-11-17T13:14:54.764Z,1.50
2022-11-17T13:17:28.892Z,1.53
2022-11-17T13:20:03.824Z,2.23
2022-11-17T13:22:33.597Z,1.97
2022-11-17T13:25:19.901Z,1.47
2022-11-17T13:27:54.160Z,1.60
2022-11-17T13:30:24.530Z,1.60
2022-11-17T13:32:53.177Z,1.73
2022-11-17T13:35:26.285Z,1.83
2022-11-17T13:38:05.890Z,1.30
2022-11-17T13:40:36.407Z,1.70
2022-11-17T13:43:05.563Z,1.50
2022-11-17T13:45:33.641Z,1.60
2022-11-17T13:48:01.679Z,2.60
2022-11-17T13:50:40.746Z,1.57
2022-11-17T13:53:25.016Z,1.50
2022-11-17T13:55:53.809Z,1.90
2022-11-17T13:58:27.179Z,2.80
2022-11-17T14:00:57.577Z,2.60
2022-11-17T14:03:34.173Z,1.77
2022-11-17T14:06:05.459Z,1.50
2022-11-17T14:08:34.904Z,1.83
2022-11-17T14:11:21.289Z,1.57
2022-11-17T14:13:53.881Z,2.63
2022-11-17T14:16:26.138Z,2.37
2022-11-17T14:18:59.942Z,1.90
2022-11-17T14:21:30.189Z,2.47
2022-11-17T14:24:05.532Z,2.30
2022-11-17T14:26:33.930Z,1.93
2022-11-17T14:29:03.076Z,1.77
2022-11-17T14:31:31.839Z,2.20
2022-11-17T14:33:59.820Z,2.30
2022-11-17T14:36:29.372Z,1.60
2022-11-17T14:38:57.394Z,1.87
2022-11-17T14:41:25.368Z,1.63
2022-11-17T14:43:53.405Z,2.80
2022-11-17T14:46:24.049Z,2.90
2022-11-17T14:48:52.723Z,5.30
2022-11-17T14:51:21.668Z,5.30
2022-11-17T14:53:51.516Z,2.87
2022-11-17T14:56:21.012Z,2.47
2022-11-17T14:58:53.436Z,2.50
2022-11-17T15:01:25.232Z,4.80
2022-11-17T15:03:55.230Z,3.50
2022-11-17T15:06:23.820Z,8.37
2022-11-17T15:08:57.667Z,4.30
2022-11-17T15:11:26.698Z,2.00
2022-11-17T15:13:54.805Z,3.00
2022-11-17T15:16:22.812Z,2.53
2022-11-17T15:18:50.915Z,2.33
2022-11-17T15:21:18.936Z,2.17
2022-11-17T15:23:46.973Z,2.30
2022-11-17T15:26:18.926Z,2.43
2022-11-17T15:28:47.141Z,2.73
2022-11-17T15:31:16.274Z,2.87
2022-11-17T15:33:45.243Z,3.17
2022-11-17T15:36:14.946Z,2.53
2022-11-17T15:38:43.673Z,3.30
2022-11-17T15:41:13.799Z,2.33
2022-11-17T15:43:45.443Z,2.20
2022-11-17T15:46:15.155Z,2.60
2022-11-17T15:48:44.223Z,3.30
2022-11-17T15:51:13.535Z,2.20
2022-11-17T15:53:42.444Z,2.00
2022-11-17T15:56:12.265Z,14.50
2022-11-17T15:58:41.550Z,5.70
2022-11-17T16:01:13.495Z,3.60
2022-11-17T16:03:42.801Z,5.70
2022-11-17T16:06:11.888Z,10.93
2022-11-17T16:08:40.761Z,5.60
2022-11-17T16:11:09.150Z,12.83
2022-11-17T16:13:37.348Z,8.90
2022-11-17T16:16:05.770Z,6.20
2022-11-17T16:18:38.188Z,6.30
2022-11-17T16:21:08.350Z,6.13
2022-11-17T16:23:40.781Z,4.50
2022-11-17T16:26:09.238Z,3.90
2022-11-17T16:28:37.651Z,3.97
2022-11-17T16:31:26.191Z,4.73
2022-11-17T16:33:58.659Z,4.13
2022-11-17T16:36:36.581Z,5.20
2022-11-17T16:39:07.601Z,5.77
2022-11-17T16:41:37.149Z,4.40
2022-11-17T16:44:09.082Z,3.10
2022-11-17T16:46:37.130Z,3.40
2022-11-17T16:49:08.083Z,2.77
2022-11-17T16:51:36.361Z,5.03
2022-11-17T16:54:06.258Z,7.43
2022-11-17T16:56:35.142Z,9.90
2022-11-17T16:59:03.630Z,13.00
2022-11-17T17:01:33.834Z,10.87
2022-11-17T17:04:04.037Z,10.40
2022-11-17T17:06:34.023Z,10.73
2022-11-17T17:09:07.017Z,11.80
2022-11-17T17:11:36.491Z,13.93
2022-11-17T17:17:38.773Z,13.57
2022-11-17T17:20:51.596Z,10.30
2022-11-17T17:23:21.310Z,8.77
2022-11-17T17:26:03.634Z,8.53
2022-11-17T17:28:34.071Z,8.80
2022-11-17T17:31:09.385Z,11.00
2022-11-17T17:33:39.702Z,8.77
2022-11-17T17:36:13.961Z,8.17
2022-11-17T17:38:44.140Z,11.47
2022-11-17T17:41:13.748Z,9.27
2022-11-17T17:43:42.883Z,6.90
2022-11-17T17:46:15.867Z,6.63
2022-11-17T17:48:47.521Z,6.30
2022-11-17T17:51:17.460Z,6.87
2022-11-17T17:53:49.903Z,6.67
2022-11-17T17:56:19.990Z,7.70
2022-11-17T17:58:50.637Z,12.23
2022-11-17T18:01:29.040Z,11.10
2022-11-17T18:04:01.598Z,9.20
2022-11-17T18:06:30.656Z,6.20
2022-11-17T18:09:00.001Z,4.83
2022-11-17T18:11:28.028Z,4.50
2022-11-17T18:13:56.845Z,5.63
2022-11-17T18:16:26.779Z,8.53
2022-11-17T18:18:58.174Z,10.97
2022-11-17T18:21:28.519Z,9.50
2022-11-17T18:23:58.072Z,6.37
2022-11-17T18:26:29.126Z,6.00
2022-11-17T18:28:59.645Z,7.73
2022-11-17T18:31:29.091Z,5.10
2022-11-17T18:33:58.915Z,5.30
2022-11-17T18:36:30.817Z,3.90
2022-11-17T18:39:01.731Z,3.30
2022-11-17T18:41:33.884Z,3.30
2022-11-17T18:44:02.350Z,2.30
2022-11-17T18:46:32.103Z,3.03
2022-11-17T18:49:04.525Z,2.60
2022-11-17T18:51:45.382Z,1.60
2022-11-17T18:54:24.605Z,3.10
2022-11-17T18:56:53.947Z,2.90
2022-11-17T18:59:21.881Z,2.87
2022-11-17T19:01:50.618Z,2.60
2022-11-17T19:04:18.833Z,2.77
2022-11-17T19:06:46.902Z,1.60
2022-11-17T19:09:16.220Z,1.47
2022-11-17T19:11:44.326Z,1.80
2022-11-17T19:14:13.632Z,1.40
2022-11-17T19:16:44.793Z,1.20
2022-11-17T19:19:14.450Z,1.10
2022-11-17T19:21:43.196Z,1.07
2022-11-17T19:24:11.135Z,0.90
2022-11-17T19:26:39.087Z,1.03
2022-11-17T19:29:15.568Z,1.10
2022-11-17T19:31:47.029Z,1.80
2022-11-17T19:34:15.602Z,1.73
2022-11-17T19:36:44.449Z,0.90
2022-11-17T19:39:13.100Z,0.83
2022-11-17T19:41:41.170Z,0.80
2022-11-17T19:44:09.907Z,1.03
2022-11-17T19:46:38.929Z,0.90
2022-11-17T19:49:08.761Z,1.30
2022-11-17T19:51:37.772Z,1.20
2022-11-17T19:54:07.813Z,0.80
2022-11-17T19:56:36.296Z,0.57
2022-11-17T19:59:04.647Z,0.57
2022-11-17T20:01:33.811Z,0.70
2022-11-17T20:04:02.738Z,0.57
2022-11-17T20:06:36.973Z,1.10
2022-11-17T20:09:08.104Z,1.00
2022-11-17T20:11:36.710Z,0.70
2022-11-17T20:14:05.186Z,0.83
2022-11-17T20:16:33.370Z,0.97
2022-11-17T20:19:02.949Z,0.60
2022-11-17T20:21:33.653Z,0.50
2022-11-17T20:24:02.314Z,1.03
2022-11-17T20:26:32.228Z,0.50
2022-11-17T20:29:01.220Z,0.50
2022-11-17T20:31:31.661Z,0.60
2022-11-17T20:34:01.246Z,0.70
2022-11-17T20:36:30.637Z,1.73
2022-11-17T20:39:01.552Z,1.60
2022-11-17T20:41:30.077Z,2.50
2022-11-17T20:43:59.598Z,2.30
2022-11-17T20:46:27.832Z,2.53
2022-11-17T20:48:55.821Z,2.70
2022-11-17T20:51:25.403Z,2.07
2022-11-17T20:53:53.824Z,1.23
2022-11-17T20:56:23.191Z,0.97
2022-11-17T20:58:51.303Z,1.00
2022-11-17T21:01:21.584Z,0.90
2022-11-17T21:03:50.293Z,1.00
2022-11-17T21:06:19.602Z,0.93
2022-11-17T21:08:47.556Z,0.60
2022-11-17T21:11:37.657Z,0.50
2022-11-17T21:17:29.559Z,0.57
2022-11-17T21:20:00.693Z,0.80
2022-11-17T21:22:28.650Z,0.80
2022-11-17T21:24:56.654Z,0.60
2022-11-17T21:27:24.707Z,0.77
2022-11-17T21:29:54.049Z,0.60
2022-11-17T21:32:21.982Z,1.03
2022-11-17T21:34:53.738Z,0.60
2022-11-17T21:37:22.233Z,0.73
2022-11-17T21:39:50.219Z,0.50
2022-11-17T21:42:18.144Z,0.53
2022-11-17T21:44:47.007Z,0.60
2022-11-17T21:47:16.368Z,0.60
2022-11-17T21:49:44.336Z,0.80
2022-11-17T21:52:12.369Z,0.70
2022-11-17T21:54:40.338Z,0.77
2022-11-17T21:57:08.282Z,0.63
2022-11-17T21:59:36.212Z,0.40
2022-11-17T22:02:04.184Z,0.40
2022-11-17T22:04:33.573Z,0.67
2022-11-17T22:07:01.582Z,0.70
2022-11-17T22:09:29.607Z,0.53
2022-11-17T22:11:58.476Z,0.50
2022-11-17T22:14:26.435Z,0.83
2022-11-17T22:16:56.562Z,0.80
2022-11-17T22:19:27.504Z,0.80
2022-11-17T22:21:56.874Z,0.50
2022-11-17T22:24:24.801Z,0.80
2022-11-17T22:26:52.737Z,0.60
2022-11-17T22:29:22.621Z,0.40
2022-11-17T22:31:51.268Z,0.60
2022-11-17T22:34:19.445Z,0.40
2022-11-17T22:36:47.733Z,0.43
2022-11-17T22:39:17.212Z,0.60
2022-11-17T22:41:45.314Z,0.43
2022-11-17T22:44:14.641Z,0.70
2022-11-17T22:46:43.170Z,0.60
2022-11-17T22:49:11.527Z,0.37
2022-11-17T22:51:57.043Z,0.60
2022-11-17T22:54:26.317Z,0.90
2022-11-17T22:56:54.254Z,0.97
2022-11-17T22:59:23.854Z,0.60
2022-11-17T23:01:51.808Z,0.70
2022-11-17T23:04:19.832Z,0.43
2022-11-17T23:06:47.766Z,0.57
2022-11-17T23:09:16.121Z,0.40
2022-11-17T23:11:45.662Z,0.53
2022-11-17T23:14:14.898Z,0.60
2022-11-17T23:16:43.039Z,0.50
2022-11-17T23:19:13.450Z,0.67
2022-11-17T23:21:41.614Z,0.60
2022-11-17T23:24:12.586Z,0.70
2022-11-17T23:26:41.015Z,0.63
2022-11-17T23:29:10.435Z,0.50
2022-11-17T23:31:38.381Z,0.40
2022-11-17T23:34:06.568Z,0.60
2022-11-17T23:36:34.543Z,0.70
2022-11-17T23:39:03.164Z,0.50
2022-11-17T23:41:31.096Z,0.50
2022-11-17T23:43:59.012Z,0.90
2022-11-17T23:46:28.491Z,0.70
2022-11-17T23:48:57.105Z,0.50
2022-11-17T23:51:26.656Z,0.40
2022-11-17T23:53:54.960Z,0.80
2022-11-17T23:56:23.649Z,0.90
2022-11-17T23:58:52.646Z,0.50
